createdAt,value
2018-09-29T00:02:10.928Z,102097.13
2018-09-29T00:04:39.261Z,102090.29
2018-09-29T00:07:08.679Z,102088.99
2018-09-29T00:09:38.025Z,102091.41
2018-09-29T00:12:07.373Z,102093.14
2018-09-29T00:14:36.476Z,102092.33
2018-09-29T00:17:04.817Z,102106.64
2018-09-29T00:19:33.158Z,102111.53
2018-09-29T00:22:01.952Z,102117.02
2018-09-29T00:24:31.028Z,102110.97
2018-09-29T00:27:00.839Z,102113.07
2018-09-29T00:29:30.013Z,102108.33
2018-09-29T00:31:59.089Z,102107.16
2018-09-29T00:34:27.452Z,102107.72
2018-09-29T00:36:55.831Z,102114.69
2018-09-29T00:39:24.164Z,102122.88
2018-09-29T00:41:52.480Z,102121.27
2018-09-29T00:44:21.849Z,102127.70
2018-09-29T00:46:51.246Z,102119.48
2018-09-29T00:49:19.575Z,102126.78
2018-09-29T00:51:47.941Z,102123.39
2018-09-29T00:54:17.284Z,102126.23
2018-09-29T00:56:46.497Z,102132.83
2018-09-29T00:59:15.749Z,102134.59
2018-09-29T01:01:44.097Z,102137.13
2018-09-29T01:04:13.402Z,102137.63
2018-09-29T01:06:42.665Z,102139.31
2018-09-29T01:09:12.136Z,102134.23
2018-09-29T01:11:41.393Z,102136.09
2018-09-29T01:14:10.744Z,102137.77
2018-09-29T01:16:40.097Z,102132.69
2018-09-29T01:19:09.505Z,102127.50
2018-09-29T01:21:39.845Z,102131.29
2018-09-29T01:24:09.125Z,102138.94
2018-09-29T01:26:38.386Z,102139.92
2018-09-29T01:29:08.589Z,102139.48
2018-09-29T01:31:37.925Z,102133.14
2018-09-29T01:34:07.376Z,102138.19
2018-09-29T01:36:37.870Z,102138.99
2018-09-29T01:39:08.505Z,102145.23
2018-09-29T01:41:39.041Z,102135.47
2018-09-29T01:44:08.568Z,102133.88
2018-09-29T01:46:39.075Z,102138.70
2018-09-29T01:49:08.353Z,102141.02
2018-09-29T01:51:39.028Z,102139.41
2018-09-29T01:54:08.377Z,102141.33
2018-09-29T01:56:38.953Z,102143.61
2018-09-29T01:59:08.161Z,102139.39
2018-09-29T02:01:38.694Z,102144.23
2018-09-29T02:04:07.949Z,102148.70
2018-09-29T02:06:38.225Z,102156.58
2018-09-29T02:09:08.581Z,102154.80
2018-09-29T02:11:37.636Z,102157.78
2018-09-29T02:14:07.049Z,102153.69
2018-09-29T02:16:37.413Z,102152.34
2018-09-29T02:19:06.421Z,102151.52
2018-09-29T02:21:36.465Z,102152.83
2018-09-29T02:24:06.549Z,102160.09
2018-09-29T02:26:35.905Z,102158.54
2018-09-29T02:29:04.344Z,102156.70
2018-09-29T02:31:33.674Z,102162.95
2018-09-29T02:34:03.033Z,102162.64
2018-09-29T02:36:31.361Z,102162.70
2018-09-29T02:39:02.026Z,102166.57
2018-09-29T02:41:30.426Z,102168.72
2018-09-29T02:43:59.802Z,102167.17
2018-09-29T02:46:28.167Z,102164.20
2018-09-29T02:48:58.021Z,102165.30
2018-09-29T02:51:26.410Z,102170.20
2018-09-29T02:53:55.733Z,102164.16
2018-09-29T02:56:24.089Z,102169.40
2018-09-29T02:58:53.359Z,102163.25
2018-09-29T03:01:22.726Z,102173.00
2018-09-29T03:03:51.871Z,102173.13
2018-09-29T03:06:21.077Z,102181.31
2018-09-29T03:08:49.412Z,102181.53
2018-09-29T03:11:17.758Z,102185.08
2018-09-29T03:13:46.099Z,102180.87
2018-09-29T03:16:14.519Z,102184.39
2018-09-29T03:18:42.857Z,102188.47
2018-09-29T03:21:11.198Z,102194.17
2018-09-29T03:23:39.547Z,102196.91
2018-09-29T03:26:08.651Z,102195.28
2018-09-29T03:28:37.664Z,102196.97
2018-09-29T03:31:07.222Z,102199.88
2018-09-29T03:33:37.513Z,102205.16
2018-09-29T03:36:07.424Z,102201.33
2018-09-29T03:38:36.554Z,102202.24
2018-09-29T03:41:04.925Z,102207.89
2018-09-29T03:43:33.253Z,102210.33
2018-09-29T03:46:01.585Z,102209.04
2018-09-29T03:48:31.253Z,102212.59
2018-09-29T03:51:00.621Z,102207.94
2018-09-29T03:53:29.338Z,102221.34
2018-09-29T03:55:58.147Z,102219.63
2018-09-29T03:58:26.494Z,102212.29
2018-09-29T04:00:55.721Z,102220.92
2018-09-29T04:03:24.056Z,102219.81
2018-09-29T04:05:52.389Z,102224.65
2018-09-29T04:08:20.721Z,102218.22
2018-09-29T04:10:49.942Z,102226.36
2018-09-29T04:13:19.320Z,102232.03
2018-09-29T04:15:47.697Z,102228.58
2018-09-29T04:18:16.078Z,102228.10
2018-09-29T04:20:45.357Z,102233.91
2018-09-29T04:23:13.761Z,102234.77
2018-09-29T04:25:42.960Z,102235.73
2018-09-29T04:28:12.277Z,102241.04
2018-09-29T04:30:41.644Z,102239.66
2018-09-29T04:33:10.865Z,102239.32
2018-09-29T04:35:40.090Z,102239.22
2018-09-29T04:38:09.425Z,102244.31
2018-09-29T04:40:39.762Z,102249.14
2018-09-29T04:43:08.134Z,102248.27
2018-09-29T04:45:38.212Z,102251.98
2018-09-29T04:48:07.620Z,102251.11
2018-09-29T04:50:37.433Z,102252.89
2018-09-29T04:53:07.798Z,102247.71
2018-09-29T04:55:37.203Z,102250.25
2018-09-29T04:58:06.849Z,102251.98
2018-09-29T05:00:36.346Z,102249.38
2018-09-29T05:03:05.493Z,102252.59
2018-09-29T05:05:33.821Z,102250.92
2018-09-29T05:08:02.151Z,102260.03
2018-09-29T05:10:31.249Z,102257.00
2018-09-29T05:13:00.681Z,102258.83
2018-09-29T05:15:30.197Z,102263.19
2018-09-29T05:17:58.673Z,102263.23
2018-09-29T05:20:27.001Z,102266.97
2018-09-29T05:22:55.345Z,102259.83
2018-09-29T05:25:23.704Z,102254.74
2018-09-29T05:27:53.073Z,102256.23
2018-09-29T05:30:21.417Z,102258.44
2018-09-29T05:32:49.749Z,102258.38
2018-09-29T05:35:18.085Z,102262.94
2018-09-29T05:37:46.414Z,102268.08
2018-09-29T05:40:14.758Z,102263.23
2018-09-29T05:42:43.097Z,102263.05
2018-09-29T05:45:11.439Z,102267.83
2018-09-29T05:47:39.773Z,102265.20
2018-09-29T05:50:08.281Z,102280.92
2018-09-29T05:52:37.543Z,102285.66
2018-09-29T05:55:05.894Z,102282.98
2018-09-29T05:57:36.391Z,102287.25
2018-09-29T06:00:05.421Z,102293.53
2018-09-29T06:02:33.764Z,102286.95
2018-09-29T06:05:02.353Z,102299.47
2018-09-29T06:07:31.992Z,102298.51
2018-09-29T06:10:01.324Z,102292.45
2018-09-29T06:12:31.457Z,102298.40
2018-09-29T06:15:01.230Z,102296.84
2018-09-29T06:17:30.793Z,102302.53
2018-09-29T06:20:01.161Z,102311.33
2018-09-29T06:22:31.384Z,102314.52
2018-09-29T06:25:02.029Z,102317.81
2018-09-29T06:27:31.269Z,102313.75
2018-09-29T06:30:00.254Z,102312.55
2018-09-29T06:32:30.509Z,102307.78
2018-09-29T06:34:59.914Z,102311.16
2018-09-29T06:37:28.761Z,102307.81
2018-09-29T06:39:57.097Z,102316.55
2018-09-29T06:42:25.444Z,102324.45
2018-09-29T06:44:53.901Z,102332.84
2018-09-29T06:47:22.233Z,102330.42
2018-09-29T06:49:50.583Z,102349.13
2018-09-29T06:52:19.961Z,102341.09
2018-09-29T06:54:49.254Z,102349.86
2018-09-29T06:57:18.606Z,102356.07
2018-09-29T06:59:47.891Z,102352.86
2018-09-29T07:02:16.233Z,102353.94
2018-09-29T07:04:45.376Z,102348.52
2018-09-29T07:07:14.562Z,102337.03
2018-09-29T07:09:42.898Z,102355.69
2018-09-29T07:12:11.625Z,102349.69
2018-09-29T07:14:40.989Z,102344.75
2018-09-29T07:17:10.216Z,102359.53
2018-09-29T07:19:38.546Z,102359.67
2018-09-29T07:22:09.004Z,102364.06
2018-09-29T07:24:38.853Z,102356.83
2018-09-29T07:27:08.087Z,102360.28
2018-09-29T07:29:37.982Z,102358.21
2018-09-29T07:32:08.073Z,102356.72
2018-09-29T07:34:38.689Z,102365.20
2018-09-29T07:37:09.058Z,102357.01
2018-09-29T07:39:38.388Z,102357.03
2018-09-29T07:42:08.201Z,102363.62
2018-09-29T07:44:39.051Z,102357.72
2018-09-29T07:47:08.308Z,102360.16
2018-09-29T07:49:38.698Z,102364.04
2018-09-29T07:52:08.109Z,102354.39
2018-09-29T07:54:37.427Z,102355.81
2018-09-29T07:57:07.473Z,102354.45
2018-09-29T07:59:35.877Z,102360.08
2018-09-29T08:02:04.214Z,102358.01
2018-09-29T08:04:32.830Z,102351.09
2018-09-29T08:07:01.223Z,102352.12
2018-09-29T08:09:30.644Z,102350.80
2018-09-29T08:11:59.441Z,102350.09
2018-09-29T08:14:29.392Z,102348.75
2018-09-29T08:16:58.234Z,102350.83
2018-09-29T08:19:26.573Z,102352.50
2018-09-29T08:21:54.952Z,102353.95
2018-09-29T08:24:24.251Z,102348.64
2018-09-29T08:26:52.560Z,102347.86
2018-09-29T08:29:20.905Z,102340.97
2018-09-29T08:31:49.313Z,102353.13
2018-09-29T08:34:17.696Z,102351.69
2018-09-29T08:36:46.064Z,102360.17
2018-09-29T08:39:14.530Z,102359.04
2018-09-29T08:41:42.929Z,102350.64
2018-09-29T08:44:11.241Z,102354.52
2018-09-29T08:46:39.650Z,102353.97
2018-09-29T08:49:07.964Z,102354.20
2018-09-29T08:51:36.939Z,102363.28
2018-09-29T08:54:06.280Z,102365.52
2018-09-29T08:56:37.130Z,102364.61
2018-09-29T08:59:06.769Z,102364.69
2018-09-29T09:01:36.709Z,102357.41
2018-09-29T09:04:06.167Z,102359.70
2018-09-29T09:06:35.985Z,102359.61
2018-09-29T09:09:06.521Z,102360.38
2018-09-29T09:11:36.155Z,102363.42
2018-09-29T09:14:05.403Z,102365.08
2018-09-29T09:16:33.757Z,102373.06
2018-09-29T09:19:03.154Z,102365.77
2018-09-29T09:21:32.121Z,102368.48
2018-09-29T09:24:01.068Z,102369.89
2018-09-29T09:29:06.326Z,102375.00
2018-09-29T09:31:35.384Z,102370.95
2018-09-29T09:34:03.773Z,102367.53
2018-09-29T09:36:32.989Z,102366.63
2018-09-29T09:39:01.584Z,102372.17
2018-09-29T09:41:30.716Z,102360.17
2018-09-29T09:43:59.492Z,102363.27
2018-09-29T09:46:27.845Z,102361.30
2018-09-29T09:48:56.186Z,102357.23
2018-09-29T09:51:25.609Z,102354.77
2018-09-29T09:53:53.948Z,102364.88
2018-09-29T09:56:22.337Z,102362.75
2018-09-29T09:58:50.677Z,102357.69
2018-09-29T10:01:41.414Z,102356.11
2018-09-29T10:04:10.731Z,102357.38
2018-09-29T10:06:39.070Z,102350.33
2018-09-29T10:09:09.825Z,102348.80
2018-09-29T10:11:38.200Z,102342.76
2018-09-29T10:14:07.566Z,102353.75
2018-09-29T10:16:37.778Z,102356.40
2018-09-29T10:19:07.777Z,102353.58
2018-09-29T10:21:37.520Z,102357.38
2018-09-29T10:24:05.943Z,102352.48
2018-09-29T10:26:35.106Z,102354.65
2018-09-29T10:29:03.458Z,102357.38
2018-09-29T10:31:31.793Z,102352.86
2018-09-29T10:34:01.109Z,102357.39
2018-09-29T10:36:30.889Z,102348.72
2018-09-29T10:39:00.362Z,102348.91
2018-09-29T10:41:29.422Z,102348.37
2018-09-29T10:43:59.526Z,102349.41
2018-09-29T10:46:28.486Z,102342.55
2018-09-29T10:48:56.838Z,102340.89
2018-09-29T10:51:25.204Z,102328.68
2018-09-29T10:53:53.669Z,102333.45
2018-09-29T10:56:22.080Z,102332.40
2018-09-29T10:58:50.416Z,102321.59
2018-09-29T11:01:18.756Z,102321.59
2018-09-29T11:03:47.253Z,102325.70
2018-09-29T11:06:15.578Z,102314.42
2018-09-29T11:08:43.965Z,102303.91
2018-09-29T11:11:12.292Z,102302.08
2018-09-29T11:13:41.477Z,102294.00
2018-09-29T11:16:09.810Z,102286.99
2018-09-29T11:18:38.253Z,102293.02
2018-09-29T11:21:07.937Z,102290.36
2018-09-29T11:23:37.849Z,102291.67
2018-09-29T11:26:07.341Z,102289.02
2018-09-29T11:28:36.772Z,102278.17
2018-09-29T11:31:07.193Z,102273.17
2018-09-29T11:33:36.532Z,102271.73
2018-09-29T11:36:05.329Z,102270.05
2018-09-29T11:38:33.989Z,102269.28
2018-09-29T11:41:02.321Z,102258.80
2018-09-29T11:43:30.689Z,102251.44
2018-09-29T11:45:59.403Z,102251.09
2018-09-29T11:48:28.873Z,102258.04
2018-09-29T11:50:57.218Z,102245.24
2018-09-29T11:53:25.554Z,102244.08
2018-09-29T11:55:54.761Z,102249.64
2018-09-29T11:58:23.167Z,102247.95
2018-09-29T12:00:51.569Z,102240.80
2018-09-29T12:03:20.917Z,102233.27
2018-09-29T12:05:49.309Z,102232.73
2018-09-29T12:08:17.902Z,102239.54
2018-09-29T12:10:47.162Z,102233.31
2018-09-29T12:13:15.513Z,102234.39
2018-09-29T12:15:43.846Z,102233.28
2018-09-29T12:18:12.184Z,102232.79
2018-09-29T12:20:40.532Z,102224.73
2018-09-29T12:23:08.885Z,102218.48
2018-09-29T12:25:37.841Z,102221.90
2018-09-29T12:28:07.329Z,102211.40
2018-09-29T12:30:37.571Z,102199.87
2018-09-29T12:33:06.393Z,102195.29
2018-09-29T12:35:35.417Z,102199.72
2018-09-29T12:38:03.798Z,102191.08
2018-09-29T12:40:32.135Z,102191.98
2018-09-29T12:43:01.204Z,102194.71
2018-09-29T12:45:30.257Z,102187.55
2018-09-29T12:47:59.497Z,102185.77
2018-09-29T12:50:28.928Z,102180.01
2018-09-29T12:52:58.561Z,102183.40
2018-09-29T12:55:27.953Z,102183.40
2018-09-29T12:57:57.169Z,102177.28
2018-09-29T13:00:25.572Z,102169.16
2018-09-29T13:02:54.967Z,102162.30
2018-09-29T13:05:23.345Z,102157.56
2018-09-29T13:07:51.720Z,102156.71
2018-09-29T13:10:20.062Z,102155.94
2018-09-29T13:12:48.448Z,102150.58
2018-09-29T13:15:16.841Z,102149.06
2018-09-29T13:17:45.403Z,102148.33
2018-09-29T13:20:13.728Z,102145.91
2018-09-29T13:22:43.096Z,102141.81
2018-09-29T13:25:11.473Z,102140.74
2018-09-29T13:27:41.141Z,102148.37
2018-09-29T13:30:09.474Z,102141.56
2018-09-29T13:32:39.442Z,102139.17
2018-09-29T13:35:08.544Z,102143.77
2018-09-29T13:37:39.297Z,102140.11
2018-09-29T13:40:09.174Z,102139.78
2018-09-29T13:42:38.389Z,102142.42
2018-09-29T13:45:08.050Z,102138.87
2018-09-29T13:47:38.242Z,102130.17
2018-09-29T13:50:08.265Z,102122.77
2018-09-29T13:52:37.614Z,102120.53
2018-09-29T13:55:05.985Z,102111.52
2018-09-29T13:57:36.222Z,102115.06
2018-09-29T14:00:05.313Z,102108.33
2018-09-29T14:02:33.713Z,102100.37
2018-09-29T14:05:02.068Z,102099.59
2018-09-29T14:07:31.281Z,102096.30
2018-09-29T14:10:00.889Z,102095.09
2018-09-29T14:12:29.232Z,102092.19
2018-09-29T14:14:58.577Z,102081.86
2018-09-29T14:17:28.461Z,102080.83
2018-09-29T14:19:57.680Z,102080.55
2018-09-29T14:22:26.094Z,102081.38
2018-09-29T14:24:55.408Z,102074.37
2018-09-29T14:27:23.789Z,102070.17
2018-09-29T14:29:53.152Z,102065.39
2018-09-29T14:32:21.766Z,102063.27
2018-09-29T14:34:50.105Z,102057.63
2018-09-29T14:37:19.469Z,102058.77
2018-09-29T14:39:47.834Z,102058.83
2018-09-29T14:42:16.197Z,102057.59
2018-09-29T14:44:45.587Z,102060.23
2018-09-29T14:47:14.920Z,102059.03
2018-09-29T14:49:43.298Z,102053.36
2018-09-29T14:52:11.649Z,102056.63
2018-09-29T14:54:40.058Z,102051.06
2018-09-29T14:57:08.395Z,102054.14
2018-09-29T14:59:39.339Z,102049.34
2018-09-29T15:02:09.022Z,102040.55
2018-09-29T15:04:41.384Z,102041.91
2018-09-29T15:07:09.716Z,102039.39
2018-09-29T15:09:38.054Z,102040.05
2018-09-29T15:12:06.990Z,102037.92
2018-09-29T15:14:36.076Z,102035.09
2018-09-29T15:17:06.225Z,102039.73
2018-09-29T15:19:35.758Z,102038.06
2018-09-29T15:22:05.026Z,102034.58
2018-09-29T15:24:33.388Z,102036.78
2018-09-29T15:27:02.648Z,102027.58
2018-09-29T15:29:32.849Z,102030.08
2018-09-29T15:32:02.617Z,102027.06
2018-09-29T15:34:31.786Z,102026.27
2018-09-29T15:37:01.997Z,102027.17
2018-09-29T15:39:31.365Z,102015.99
2018-09-29T15:42:00.875Z,102018.94
2018-09-29T15:44:30.114Z,102021.56
2018-09-29T15:46:59.489Z,102022.63
2018-09-29T15:49:28.758Z,102019.05
2018-09-29T15:51:57.199Z,102017.84
2018-09-29T15:54:25.680Z,102011.77
2018-09-29T15:56:54.149Z,102018.06
2018-09-29T15:59:22.648Z,102013.48
2018-09-29T16:01:52.033Z,102004.58
2018-09-29T16:04:20.382Z,102011.89
2018-09-29T16:06:48.871Z,102006.75
2018-09-29T16:09:17.225Z,102010.97
2018-09-29T16:11:45.544Z,102008.43
2018-09-29T16:14:14.361Z,102004.77
2018-09-29T16:16:43.693Z,102005.13
2018-09-29T16:19:12.906Z,102004.55
2018-09-29T16:21:41.261Z,102001.83
2018-09-29T16:24:09.598Z,102012.55
2018-09-29T16:26:38.773Z,102009.85
2018-09-29T16:29:08.145Z,102009.44
2018-09-29T16:31:37.877Z,102012.39
2018-09-29T16:34:08.021Z,102013.82
2018-09-29T16:36:36.805Z,102014.73
2018-09-29T16:39:09.182Z,102008.56
2018-09-29T16:41:38.426Z,102017.27
2018-09-29T16:44:07.459Z,102017.63
2018-09-29T16:46:37.701Z,102015.45
2018-09-29T16:49:07.537Z,102017.58
2018-09-29T16:51:35.913Z,102012.68
2018-09-29T16:54:06.114Z,102016.78
2018-09-29T16:56:36.333Z,102023.56
2018-09-29T16:59:07.211Z,102018.28
2018-09-29T17:01:37.233Z,102021.68
2018-09-29T17:04:07.916Z,102024.69
2018-09-29T17:06:37.154Z,102025.09
2018-09-29T17:09:09.369Z,102030.83
2018-09-29T17:11:39.438Z,102027.59
2018-09-29T17:14:08.390Z,102030.12
2018-09-29T17:16:38.770Z,102027.50
2018-09-29T17:19:08.281Z,102030.86
2018-09-29T17:21:37.693Z,102035.81
2018-09-29T17:24:06.077Z,102036.12
2018-09-29T17:26:34.449Z,102030.20
2018-09-29T17:29:02.827Z,102037.32
2018-09-29T17:31:32.298Z,102035.76
2018-09-29T17:34:01.312Z,102031.86
2018-09-29T17:36:30.702Z,102038.39
2018-09-29T17:38:59.560Z,102031.94
2018-09-29T17:41:28.662Z,102032.50
2018-09-29T17:43:56.993Z,102030.70
2018-09-29T17:46:25.378Z,102029.86
2018-09-29T17:48:53.769Z,102027.53
2018-09-29T17:51:22.210Z,102029.90
2018-09-29T17:53:50.553Z,102029.30
2018-09-29T17:56:18.892Z,102025.59
2018-09-29T17:58:47.350Z,102027.63
2018-09-29T18:01:15.689Z,102023.79
2018-09-29T18:03:44.041Z,102019.64
2018-09-29T18:06:12.413Z,102018.94
2018-09-29T18:08:40.809Z,102017.69
2018-09-29T18:11:09.182Z,102016.45
2018-09-29T18:13:39.956Z,102011.72
2018-09-29T18:16:08.273Z,102018.50
2018-09-29T18:18:38.109Z,102027.82
2018-09-29T18:21:07.798Z,102016.66
2018-09-29T18:23:36.903Z,102023.78
2018-09-29T18:26:07.299Z,102026.42
2018-09-29T18:28:36.880Z,102028.77
2018-09-29T18:31:06.236Z,102020.70
2018-09-29T18:33:35.626Z,102019.18
2018-09-29T18:36:03.986Z,102023.83
2018-09-29T18:38:32.362Z,102019.26
2018-09-29T18:41:02.707Z,102017.63
2018-09-29T18:43:32.765Z,102019.56
2018-09-29T18:46:02.668Z,102015.32
2018-09-29T18:48:32.571Z,102003.86
2018-09-29T18:51:01.761Z,102002.67
2018-09-29T18:56:21.557Z,102003.64
2018-09-29T18:58:49.974Z,101999.92
2018-09-29T19:01:18.422Z,102003.91
2018-09-29T19:03:46.784Z,102005.91
2018-09-29T19:06:15.190Z,102006.17
2018-09-29T19:08:44.605Z,102002.55
2018-09-29T19:11:14.913Z,101999.09
2018-09-29T19:13:44.015Z,101998.83
2018-09-29T19:16:12.416Z,102000.77
2018-09-29T19:18:41.668Z,101994.88
2018-09-29T19:21:10.010Z,101999.48
2018-09-29T19:23:39.482Z,101996.28
2018-09-29T19:26:09.632Z,101991.77
2018-09-29T19:28:38.746Z,101991.53
2018-09-29T19:31:08.694Z,101995.61
2018-09-29T19:33:37.755Z,101987.61
2018-09-29T19:36:07.954Z,101980.42
2018-09-29T19:38:37.750Z,101985.86
2018-09-29T19:41:06.089Z,101982.52
2018-09-29T19:43:34.480Z,101979.98
2018-09-29T19:46:02.829Z,101978.00
2018-09-29T19:48:32.207Z,101981.05
2018-09-29T19:51:01.550Z,101974.61
2018-09-29T19:53:31.817Z,101975.50
2018-09-29T19:56:00.845Z,101972.11
2018-09-29T19:58:29.777Z,101970.54
2018-09-29T20:00:58.209Z,101969.23
2018-09-29T20:03:26.573Z,101961.95
2018-09-29T20:05:55.010Z,101965.58
2018-09-29T20:08:25.767Z,101958.73
2018-09-29T20:10:55.245Z,101959.63
2018-09-29T20:13:23.662Z,101949.02
2018-09-29T20:15:52.019Z,101950.70
2018-09-29T20:18:20.417Z,101949.02
2018-09-29T20:20:48.754Z,101943.52
2018-09-29T20:23:17.094Z,101941.77
2018-09-29T20:25:45.450Z,101938.31
2018-09-29T20:28:13.794Z,101934.89
2018-09-29T20:30:43.088Z,101928.56
2018-09-29T20:33:11.446Z,101919.57
2018-09-29T20:35:39.797Z,101922.23
2018-09-29T20:38:09.145Z,101931.33
2018-09-29T20:40:38.174Z,101924.87
2018-09-29T20:43:07.937Z,101915.39
2018-09-29T20:45:36.816Z,101922.06
2018-09-29T20:48:05.904Z,101928.31
2018-09-29T20:50:34.229Z,101926.32
2018-09-29T20:53:03.649Z,101925.22
2018-09-29T20:55:32.054Z,101922.21
2018-09-29T20:58:01.950Z,101928.42
2018-09-29T21:00:32.535Z,101922.50
2018-09-29T21:03:01.842Z,101925.55
2018-09-29T21:05:32.205Z,101920.00
2018-09-29T21:08:01.933Z,101916.61
2018-09-29T21:10:31.967Z,101921.81
2018-09-29T21:13:01.259Z,101915.37
2018-09-29T21:15:30.465Z,101914.39
2018-09-29T21:17:58.873Z,101907.74
2018-09-29T21:20:27.253Z,101904.36
2018-09-29T21:22:56.613Z,101904.77
2018-09-29T21:25:24.993Z,101900.87
2018-09-29T21:27:54.368Z,101886.17
2018-09-29T21:30:22.697Z,101887.44
2018-09-29T21:32:52.059Z,101878.84
2018-09-29T21:35:21.291Z,101884.77
2018-09-29T21:37:49.629Z,101887.70
2018-09-29T21:40:18.269Z,101878.89
2018-09-29T21:42:46.605Z,101879.69
2018-09-29T21:45:15.993Z,101875.41
2018-09-29T21:47:45.213Z,101880.95
2018-09-29T21:50:14.452Z,101875.51
2018-09-29T21:52:43.685Z,101871.84
2018-09-29T21:55:12.097Z,101864.22
2018-09-29T21:57:40.492Z,101865.38
2018-09-29T22:00:08.873Z,101865.77
2018-09-29T22:02:38.232Z,101860.30
2018-09-29T22:05:07.506Z,101856.13
2018-09-29T22:07:36.472Z,101845.55
2018-09-29T22:10:05.350Z,101849.83
2018-09-29T22:12:33.754Z,101846.00
2018-09-29T22:15:02.102Z,101846.16
2018-09-29T22:17:30.940Z,101845.40
2018-09-29T22:19:59.934Z,101842.80
2018-09-29T22:22:28.318Z,101841.66
2018-09-29T22:24:56.689Z,101835.17
2018-09-29T22:27:25.013Z,101827.67
2018-09-29T22:29:53.410Z,101831.31
2018-09-29T22:32:22.813Z,101822.23
2018-09-29T22:34:51.165Z,101831.31
2018-09-29T22:37:19.539Z,101824.48
2018-09-29T22:39:47.890Z,101823.84
2018-09-29T22:42:17.095Z,101822.64
2018-09-29T22:44:45.493Z,101815.88
2018-09-29T22:47:13.846Z,101812.20
2018-09-29T22:49:42.178Z,101815.30
2018-09-29T22:52:11.422Z,101814.09
2018-09-29T22:54:40.729Z,101811.50
2018-09-29T22:57:10.078Z,101807.22
2018-09-29T22:59:38.457Z,101805.01
2018-09-29T23:02:08.096Z,101809.81
2018-09-29T23:04:36.994Z,101804.00
2018-09-29T23:07:06.049Z,101802.83
2018-09-29T23:09:34.509Z,101811.94
2018-09-29T23:12:02.845Z,101798.23
2018-09-29T23:14:31.894Z,101798.39
2018-09-29T23:17:02.363Z,101805.82
2018-09-29T23:19:31.945Z,101796.83
2018-09-29T23:22:02.149Z,101792.24
2018-09-29T23:24:32.881Z,101792.39
2018-09-29T23:27:02.140Z,101792.80
2018-09-29T23:29:32.900Z,101795.84
2018-09-29T23:32:03.322Z,101797.20
2018-09-29T23:34:31.709Z,101788.98
2018-09-29T23:37:02.027Z,101787.06
2018-09-29T23:39:32.715Z,101787.97
2018-09-29T23:42:02.513Z,101787.18
2018-09-29T23:44:31.861Z,101787.20
2018-09-29T23:47:01.989Z,101783.58
2018-09-29T23:49:31.905Z,101780.14
2018-09-29T23:52:01.125Z,101774.25
2018-09-29T23:54:29.984Z,101776.67
2018-09-29T23:56:59.878Z,101779.00
2018-09-29T23:59:28.900Z,101775.34
